sensor_id;sensor_type;location;lat;lon;timestamp;P1;durP1;ratioP1;P2;durP2;ratioP2
46447;SDS011;32145;50.390;30.778;2022-10-17T00:02:31;77.20;;;26.02;;
46447;SDS011;32145;50.390;30.778;2022-10-17T00:05:15;142.90;;;38.42;;
46447;SDS011;32145;50.390;30.778;2022-10-17T00:07:59;107.15;;;33.20;;
46447;SDS011;32145;50.390;30.778;2022-10-17T00:10:43;82.75;;;27.13;;
46447;SDS011;32145;50.390;30.778;2022-10-17T00:13:29;87.65;;;28.92;;
46447;SDS011;32145;50.390;30.778;2022-10-17T00:16:14;89.57;;;29.65;;
46447;SDS011;32145;50.390;30.778;2022-10-17T00:19:05;100.65;;;31.02;;
46447;SDS011;32145;50.390;30.778;2022-10-17T00:21:50;92.53;;;28.92;;
46447;SDS011;32145;50.390;30.778;2022-10-17T00:24:33;76.45;;;25.02;;
46447;SDS011;32145;50.390;30.778;2022-10-17T00:27:17;57.20;;;20.15;;
46447;SDS011;32145;50.390;30.778;2022-10-17T00:30:03;45.55;;;18.42;;
46447;SDS011;32145;50.390;30.778;2022-10-17T00:32:49;41.70;;;16.63;;
46447;SDS011;32145;50.390;30.778;2022-10-17T00:35:33;36.95;;;15.20;;
46447;SDS011;32145;50.390;30.778;2022-10-17T00:38:17;42.20;;;15.68;;
46447;SDS011;32145;50.390;30.778;2022-10-17T00:41:01;31.65;;;14.40;;
46447;SDS011;32145;50.390;30.778;2022-10-17T00:43:53;30.10;;;12.75;;
46447;SDS011;32145;50.390;30.778;2022-10-17T00:46:40;28.63;;;13.30;;
46447;SDS011;32145;50.390;30.778;2022-10-17T00:49:25;26.77;;;12.40;;
46447;SDS011;32145;50.390;30.778;2022-10-17T00:52:12;31.05;;;13.05;;
46447;SDS011;32145;50.390;30.778;2022-10-17T00:54:59;25.70;;;12.00;;
46447;SDS011;32145;50.390;30.778;2022-10-17T00:57:45;26.67;;;12.50;;
46447;SDS011;32145;50.390;30.778;2022-10-17T01:00:29;31.35;;;13.57;;
46447;SDS011;32145;50.390;30.778;2022-10-17T01:03:15;53.50;;;19.52;;
46447;SDS011;32145;50.390;30.778;2022-10-17T01:05:59;41.65;;;15.35;;
46447;SDS011;32145;50.390;30.778;2022-10-17T01:08:43;45.13;;;16.42;;
46447;SDS011;32145;50.390;30.778;2022-10-17T01:11:31;48.50;;;17.63;;
46447;SDS011;32145;50.390;30.778;2022-10-17T01:14:21;41.10;;;14.85;;
46447;SDS011;32145;50.390;30.778;2022-10-17T01:17:14;42.22;;;16.23;;
46447;SDS011;32145;50.390;30.778;2022-10-17T01:20:15;41.50;;;15.55;;
46447;SDS011;32145;50.390;30.778;2022-10-17T01:23:17;43.28;;;15.35;;
46447;SDS011;32145;50.390;30.778;2022-10-17T01:26:12;42.72;;;14.88;;
46447;SDS011;32145;50.390;30.778;2022-10-17T01:29:08;137.77;;;35.45;;
46447;SDS011;32145;50.390;30.778;2022-10-17T01:32:12;143.63;;;33.78;;
46447;SDS011;32145;50.390;30.778;2022-10-17T01:35:02;121.57;;;29.88;;
46447;SDS011;32145;50.390;30.778;2022-10-17T01:37:53;122.82;;;32.60;;
46447;SDS011;32145;50.390;30.778;2022-10-17T01:40:43;142.25;;;36.22;;
46447;SDS011;32145;50.390;30.778;2022-10-17T01:43:33;132.00;;;33.13;;
46447;SDS011;32145;50.390;30.778;2022-10-17T01:46:21;127.93;;;32.47;;
46447;SDS011;32145;50.390;30.778;2022-10-17T01:49:10;75.63;;;23.23;;
46447;SDS011;32145;50.390;30.778;2022-10-17T01:51:59;60.10;;;20.92;;
46447;SDS011;32145;50.390;30.778;2022-10-17T01:54:47;121.78;;;31.10;;
46447;SDS011;32145;50.390;30.778;2022-10-17T01:57:37;187.40;;;42.88;;
46447;SDS011;32145;50.390;30.778;2022-10-17T02:00:24;105.13;;;27.30;;
46447;SDS011;32145;50.390;30.778;2022-10-17T02:03:11;61.13;;;19.58;;
46447;SDS011;32145;50.390;30.778;2022-10-17T02:06:01;44.70;;;17.45;;
46447;SDS011;32145;50.390;30.778;2022-10-17T02:08:46;37.42;;;14.73;;
46447;SDS011;32145;50.390;30.778;2022-10-17T02:11:31;30.23;;;13.27;;
46447;SDS011;32145;50.390;30.778;2022-10-17T02:14:18;83.85;;;24.00;;
46447;SDS011;32145;50.390;30.778;2022-10-17T02:17:16;73.57;;;21.48;;
46447;SDS011;32145;50.390;30.778;2022-10-17T02:20:09;41.35;;;14.80;;
46447;SDS011;32145;50.390;30.778;2022-10-17T02:23:07;36.08;;;13.27;;
46447;SDS011;32145;50.390;30.778;2022-10-17T02:25:59;31.38;;;12.50;;
46447;SDS011;32145;50.390;30.778;2022-10-17T02:28:53;29.33;;;12.95;;
46447;SDS011;32145;50.390;30.778;2022-10-17T02:31:46;66.97;;;19.95;;
46447;SDS011;32145;50.390;30.778;2022-10-17T02:34:35;107.05;;;30.85;;
46447;SDS011;32145;50.390;30.778;2022-10-17T02:37:24;163.95;;;42.90;;
46447;SDS011;32145;50.390;30.778;2022-10-17T02:40:12;136.02;;;36.63;;
46447;SDS011;32145;50.390;30.778;2022-10-17T02:43:00;85.43;;;25.70;;
46447;SDS011;32145;50.390;30.778;2022-10-17T02:45:44;90.50;;;30.10;;
46447;SDS011;32145;50.390;30.778;2022-10-17T02:48:30;66.13;;;23.35;;
46447;SDS011;32145;50.390;30.778;2022-10-17T02:51:22;53.75;;;19.75;;
46447;SDS011;32145;50.390;30.778;2022-10-17T02:54:13;50.80;;;17.98;;
46447;SDS011;32145;50.390;30.778;2022-10-17T02:57:04;45.40;;;17.80;;
46447;SDS011;32145;50.390;30.778;2022-10-17T02:59:52;48.88;;;16.25;;
46447;SDS011;32145;50.390;30.778;2022-10-17T03:02:38;38.67;;;15.85;;
46447;SDS011;32145;50.390;30.778;2022-10-17T03:05:24;40.83;;;15.75;;
46447;SDS011;32145;50.390;30.778;2022-10-17T03:08:11;41.30;;;16.15;;
46447;SDS011;32145;50.390;30.778;2022-10-17T03:10:55;36.28;;;16.05;;
46447;SDS011;32145;50.390;30.778;2022-10-17T03:13:41;42.53;;;16.38;;
46447;SDS011;32145;50.390;30.778;2022-10-17T03:16:25;39.30;;;15.60;;
46447;SDS011;32145;50.390;30.778;2022-10-17T03:19:09;39.90;;;15.55;;
46447;SDS011;32145;50.390;30.778;2022-10-17T03:21:53;34.58;;;14.95;;
46447;SDS011;32145;50.390;30.778;2022-10-17T03:24:37;36.92;;;16.08;;
46447;SDS011;32145;50.390;30.778;2022-10-17T03:27:21;32.38;;;14.10;;
46447;SDS011;32145;50.390;30.778;2022-10-17T03:30:07;30.60;;;13.82;;
46447;SDS011;32145;50.390;30.778;2022-10-17T03:32:52;32.50;;;14.00;;
46447;SDS011;32145;50.390;30.778;2022-10-17T03:35:37;28.63;;;13.68;;
46447;SDS011;32145;50.390;30.778;2022-10-17T03:38:22;31.05;;;13.13;;
46447;SDS011;32145;50.390;30.778;2022-10-17T03:41:06;33.60;;;14.07;;
46447;SDS011;32145;50.390;30.778;2022-10-17T03:43:51;31.20;;;12.82;;
46447;SDS011;32145;50.390;30.778;2022-10-17T03:46:37;30.13;;;13.23;;
46447;SDS011;32145;50.390;30.778;2022-10-17T03:49:21;32.35;;;13.65;;
46447;SDS011;32145;50.390;30.778;2022-10-17T03:52:05;29.77;;;12.77;;
46447;SDS011;32145;50.390;30.778;2022-10-17T03:54:53;25.92;;;12.95;;
46447;SDS011;32145;50.390;30.778;2022-10-17T03:57:37;31.67;;;13.13;;
46447;SDS011;32145;50.390;30.778;2022-10-17T04:00:21;26.83;;;12.32;;
46447;SDS011;32145;50.390;30.778;2022-10-17T04:03:07;26.45;;;12.27;;
46447;SDS011;32145;50.390;30.778;2022-10-17T04:05:51;26.33;;;12.70;;
46447;SDS011;32145;50.390;30.778;2022-10-17T04:08:35;29.25;;;11.88;;
46447;SDS011;32145;50.390;30.778;2022-10-17T04:11:19;31.08;;;13.35;;
46447;SDS011;32145;50.390;30.778;2022-10-17T04:14:04;33.47;;;14.05;;
46447;SDS011;32145;50.390;30.778;2022-10-17T04:16:48;29.45;;;12.73;;
46447;SDS011;32145;50.390;30.778;2022-10-17T04:19:34;29.63;;;13.02;;
46447;SDS011;32145;50.390;30.778;2022-10-17T04:22:18;27.23;;;11.25;;
46447;SDS011;32145;50.390;30.778;2022-10-17T04:25:02;30.90;;;13.70;;
46447;SDS011;32145;50.390;30.778;2022-10-17T04:27:46;50.80;;;20.45;;
46447;SDS011;32145;50.390;30.778;2022-10-17T04:30:30;52.83;;;20.40;;
46447;SDS011;32145;50.390;30.778;2022-10-17T04:33:14;46.42;;;18.20;;
46447;SDS011;32145;50.390;30.778;2022-10-17T04:36:00;30.90;;;13.27;;
46447;SDS011;32145;50.390;30.778;2022-10-17T04:38:46;28.00;;;12.52;;
46447;SDS011;32145;50.390;30.778;2022-10-17T04:41:30;35.42;;;13.95;;
46447;SDS011;32145;50.390;30.778;2022-10-17T04:44:14;29.20;;;13.32;;
46447;SDS011;32145;50.390;30.778;2022-10-17T04:47:01;26.70;;;12.15;;
46447;SDS011;32145;50.390;30.778;2022-10-17T04:49:45;28.13;;;12.60;;
46447;SDS011;32145;50.390;30.778;2022-10-17T04:52:30;26.05;;;12.25;;
46447;SDS011;32145;50.390;30.778;2022-10-17T04:55:15;20.35;;;10.60;;
46447;SDS011;32145;50.390;30.778;2022-10-17T04:57:59;25.40;;;12.57;;
46447;SDS011;32145;50.390;30.778;2022-10-17T05:00:43;27.45;;;12.75;;
46447;SDS011;32145;50.390;30.778;2022-10-17T05:03:28;29.15;;;12.95;;
46447;SDS011;32145;50.390;30.778;2022-10-17T05:06:12;24.20;;;11.20;;
46447;SDS011;32145;50.390;30.778;2022-10-17T05:08:59;28.83;;;12.73;;
46447;SDS011;32145;50.390;30.778;2022-10-17T05:11:43;26.98;;;12.80;;
46447;SDS011;32145;50.390;30.778;2022-10-17T05:14:27;30.48;;;12.43;;
46447;SDS011;32145;50.390;30.778;2022-10-17T05:17:11;24.63;;;11.55;;
46447;SDS011;32145;50.390;30.778;2022-10-17T05:19:55;27.50;;;12.68;;
46447;SDS011;32145;50.390;30.778;2022-10-17T05:22:39;25.10;;;12.15;;
46447;SDS011;32145;50.390;30.778;2022-10-17T05:25:24;24.55;;;13.30;;
46447;SDS011;32145;50.390;30.778;2022-10-17T05:28:08;33.90;;;13.88;;
46447;SDS011;32145;50.390;30.778;2022-10-17T05:30:52;32.20;;;15.77;;
46447;SDS011;32145;50.390;30.778;2022-10-17T05:33:37;42.55;;;20.23;;
46447;SDS011;32145;50.390;30.778;2022-10-17T05:36:21;50.85;;;24.20;;
46447;SDS011;32145;50.390;30.778;2022-10-17T05:39:06;40.75;;;19.73;;
46447;SDS011;32145;50.390;30.778;2022-10-17T05:41:51;43.38;;;17.48;;
46447;SDS011;32145;50.390;30.778;2022-10-17T05:44:36;33.72;;;16.02;;
46447;SDS011;32145;50.390;30.778;2022-10-17T05:47:20;33.08;;;14.65;;
46447;SDS011;32145;50.390;30.778;2022-10-17T05:50:05;28.08;;;14.23;;
46447;SDS011;32145;50.390;30.778;2022-10-17T05:52:51;29.77;;;14.02;;
46447;SDS011;32145;50.390;30.778;2022-10-17T05:55:36;27.50;;;13.95;;
46447;SDS011;32145;50.390;30.778;2022-10-17T05:58:21;23.15;;;12.68;;
46447;SDS011;32145;50.390;30.778;2022-10-17T06:01:05;27.65;;;13.63;;
46447;SDS011;32145;50.390;30.778;2022-10-17T06:03:49;27.90;;;12.93;;
46447;SDS011;32145;50.390;30.778;2022-10-17T06:06:35;32.10;;;14.38;;
46447;SDS011;32145;50.390;30.778;2022-10-17T06:09:19;26.35;;;13.27;;
46447;SDS011;32145;50.390;30.778;2022-10-17T06:12:04;24.63;;;14.40;;
46447;SDS011;32145;50.390;30.778;2022-10-17T06:14:50;18.75;;;10.18;;
46447;SDS011;32145;50.390;30.778;2022-10-17T06:17:34;18.85;;;11.05;;
46447;SDS011;32145;50.390;30.778;2022-10-17T06:20:18;19.50;;;10.55;;
46447;SDS011;32145;50.390;30.778;2022-10-17T06:23:02;16.63;;;9.27;;
46447;SDS011;32145;50.390;30.778;2022-10-17T06:25:46;17.33;;;9.13;;
46447;SDS011;32145;50.390;30.778;2022-10-17T06:28:30;14.38;;;8.32;;
46447;SDS011;32145;50.390;30.778;2022-10-17T06:31:16;15.02;;;8.25;;
46447;SDS011;32145;50.390;30.778;2022-10-17T06:34:00;14.70;;;8.57;;
46447;SDS011;32145;50.390;30.778;2022-10-17T06:36:45;16.65;;;8.38;;
46447;SDS011;32145;50.390;30.778;2022-10-17T06:39:30;15.35;;;7.75;;
46447;SDS011;32145;50.390;30.778;2022-10-17T06:42:14;11.75;;;7.22;;
46447;SDS011;32145;50.390;30.778;2022-10-17T06:45:00;12.45;;;7.13;;
46447;SDS011;32145;50.390;30.778;2022-10-17T06:47:45;11.07;;;6.50;;
46447;SDS011;32145;50.390;30.778;2022-10-17T06:50:29;13.68;;;6.70;;
46447;SDS011;32145;50.390;30.778;2022-10-17T06:53:13;16.08;;;7.40;;
46447;SDS011;32145;50.390;30.778;2022-10-17T06:55:57;13.80;;;6.60;;
46447;SDS011;32145;50.390;30.778;2022-10-17T06:58:42;13.13;;;6.82;;
46447;SDS011;32145;50.390;30.778;2022-10-17T07:01:26;12.93;;;7.10;;
46447;SDS011;32145;50.390;30.778;2022-10-17T07:04:11;13.85;;;6.45;;
46447;SDS011;32145;50.390;30.778;2022-10-17T07:06:55;11.43;;;6.35;;
46447;SDS011;32145;50.390;30.778;2022-10-17T07:09:39;15.82;;;8.88;;
46447;SDS011;32145;50.390;30.778;2022-10-17T07:12:23;13.93;;;6.97;;
46447;SDS011;32145;50.390;30.778;2022-10-17T07:15:08;13.77;;;6.45;;
46447;SDS011;32145;50.390;30.778;2022-10-17T07:17:52;12.60;;;6.82;;
46447;SDS011;32145;50.390;30.778;2022-10-17T07:20:38;14.48;;;6.95;;
46447;SDS011;32145;50.390;30.778;2022-10-17T07:23:22;13.43;;;5.75;;
46447;SDS011;32145;50.390;30.778;2022-10-17T07:26:06;10.52;;;5.70;;
46447;SDS011;32145;50.390;30.778;2022-10-17T07:28:53;11.30;;;5.65;;
46447;SDS011;32145;50.390;30.778;2022-10-17T07:31:37;10.02;;;5.78;;
46447;SDS011;32145;50.390;30.778;2022-10-17T07:34:21;12.40;;;5.35;;
46447;SDS011;32145;50.390;30.778;2022-10-17T07:37:07;12.23;;;6.00;;
46447;SDS011;32145;50.390;30.778;2022-10-17T07:39:51;12.25;;;6.03;;
46447;SDS011;32145;50.390;30.778;2022-10-17T07:42:35;11.07;;;5.97;;
46447;SDS011;32145;50.390;30.778;2022-10-17T07:45:20;10.05;;;5.40;;
46447;SDS011;32145;50.390;30.778;2022-10-17T07:48:04;11.38;;;5.90;;
46447;SDS011;32145;50.390;30.778;2022-10-17T07:50:49;10.27;;;5.88;;
46447;SDS011;32145;50.390;30.778;2022-10-17T07:53:35;10.27;;;5.65;;
46447;SDS011;32145;50.390;30.778;2022-10-17T07:56:20;11.82;;;5.70;;
46447;SDS011;32145;50.390;30.778;2022-10-17T07:59:04;9.85;;;5.70;;
46447;SDS011;32145;50.390;30.778;2022-10-17T08:01:48;8.77;;;5.20;;
46447;SDS011;32145;50.390;30.778;2022-10-17T08:04:32;9.70;;;5.10;;
46447;SDS011;32145;50.390;30.778;2022-10-17T08:07:16;9.75;;;5.25;;
46447;SDS011;32145;50.390;30.778;2022-10-17T08:10:03;8.05;;;5.00;;
46447;SDS011;32145;50.390;30.778;2022-10-17T08:12:47;10.05;;;5.15;;
46447;SDS011;32145;50.390;30.778;2022-10-17T08:15:31;11.32;;;5.05;;
46447;SDS011;32145;50.390;30.778;2022-10-17T08:18:15;8.80;;;5.18;;
46447;SDS011;32145;50.390;30.778;2022-10-17T08:21:00;9.07;;;5.40;;
46447;SDS011;32145;50.390;30.778;2022-10-17T08:23:45;11.70;;;5.13;;
46447;SDS011;32145;50.390;30.778;2022-10-17T08:26:30;10.00;;;4.85;;
46447;SDS011;32145;50.390;30.778;2022-10-17T08:29:15;12.32;;;5.10;;
46447;SDS011;32145;50.390;30.778;2022-10-17T08:31:59;8.63;;;4.68;;
46447;SDS011;32145;50.390;30.778;2022-10-17T08:34:43;8.48;;;4.70;;
46447;SDS011;32145;50.390;30.778;2022-10-17T08:37:27;8.10;;;4.68;;
46447;SDS011;32145;50.390;30.778;2022-10-17T08:40:13;10.98;;;4.88;;
46447;SDS011;32145;50.390;30.778;2022-10-17T08:43:13;8.85;;;4.93;;
46447;SDS011;32145;50.390;30.778;2022-10-17T08:46:15;9.10;;;4.85;;
46447;SDS011;32145;50.390;30.778;2022-10-17T08:49:00;14.52;;;7.22;;
46447;SDS011;32145;50.390;30.778;2022-10-17T08:51:48;8.57;;;5.35;;
46447;SDS011;32145;50.390;30.778;2022-10-17T08:54:38;8.48;;;4.57;;
46447;SDS011;32145;50.390;30.778;2022-10-17T08:57:24;9.05;;;4.45;;
46447;SDS011;32145;50.390;30.778;2022-10-17T09:00:13;11.48;;;7.25;;
46447;SDS011;32145;50.390;30.778;2022-10-17T09:03:04;11.13;;;6.15;;
46447;SDS011;32145;50.390;30.778;2022-10-17T09:05:59;10.98;;;4.75;;
46447;SDS011;32145;50.390;30.778;2022-10-17T09:08:57;11.90;;;5.03;;
46447;SDS011;32145;50.390;30.778;2022-10-17T09:11:54;9.50;;;3.95;;
46447;SDS011;32145;50.390;30.778;2022-10-17T09:14:56;10.80;;;4.60;;
46447;SDS011;32145;50.390;30.778;2022-10-17T09:17:53;8.52;;;3.70;;
46447;SDS011;32145;50.390;30.778;2022-10-17T09:20:42;14.60;;;7.18;;
46447;SDS011;32145;50.390;30.778;2022-10-17T09:23:30;10.00;;;4.78;;
46447;SDS011;32145;50.390;30.778;2022-10-17T09:26:20;9.85;;;3.85;;
46447;SDS011;32145;50.390;30.778;2022-10-17T09:29:09;10.10;;;4.50;;
46447;SDS011;32145;50.390;30.778;2022-10-17T09:32:00;8.20;;;4.22;;
46447;SDS011;32145;50.390;30.778;2022-10-17T09:34:48;8.95;;;3.80;;
46447;SDS011;32145;50.390;30.778;2022-10-17T09:37:32;8.50;;;4.30;;
46447;SDS011;32145;50.390;30.778;2022-10-17T09:40:21;9.07;;;4.15;;
46447;SDS011;32145;50.390;30.778;2022-10-17T09:43:07;9.57;;;4.10;;
46447;SDS011;32145;50.390;30.778;2022-10-17T09:45:58;8.27;;;4.07;;
46447;SDS011;32145;50.390;30.778;2022-10-17T09:48:49;6.38;;;3.47;;
46447;SDS011;32145;50.390;30.778;2022-10-17T09:51:37;5.88;;;3.50;;
46447;SDS011;32145;50.390;30.778;2022-10-17T09:54:23;6.43;;;3.63;;
46447;SDS011;32145;50.390;30.778;2022-10-17T09:57:11;7.90;;;3.83;;
46447;SDS011;32145;50.390;30.778;2022-10-17T09:59:57;5.68;;;3.45;;
46447;SDS011;32145;50.390;30.778;2022-10-17T10:02:43;6.55;;;3.33;;
46447;SDS011;32145;50.390;30.778;2022-10-17T10:05:27;6.63;;;3.40;;
46447;SDS011;32145;50.390;30.778;2022-10-17T10:08:15;6.35;;;3.40;;
46447;SDS011;32145;50.390;30.778;2022-10-17T10:11:02;10.45;;;3.83;;
46447;SDS011;32145;50.390;30.778;2022-10-17T10:13:48;7.45;;;3.50;;
46447;SDS011;32145;50.390;30.778;2022-10-17T10:16:33;10.10;;;3.50;;
46447;SDS011;32145;50.390;30.778;2022-10-17T10:19:27;6.25;;;3.35;;
46447;SDS011;32145;50.390;30.778;2022-10-17T10:22:13;7.90;;;3.50;;
46447;SDS011;32145;50.390;30.778;2022-10-17T10:25:13;7.10;;;3.45;;
46447;SDS011;32145;50.390;30.778;2022-10-17T10:27:59;6.70;;;3.17;;
46447;SDS011;32145;50.390;30.778;2022-10-17T10:30:45;9.05;;;3.55;;
46447;SDS011;32145;50.390;30.778;2022-10-17T10:33:31;6.53;;;3.42;;
46447;SDS011;32145;50.390;30.778;2022-10-17T10:36:18;8.35;;;3.20;;
46447;SDS011;32145;50.390;30.778;2022-10-17T10:39:02;5.97;;;3.42;;
46447;SDS011;32145;50.390;30.778;2022-10-17T10:41:48;7.07;;;3.55;;
46447;SDS011;32145;50.390;30.778;2022-10-17T10:44:32;5.63;;;3.40;;
46447;SDS011;32145;50.390;30.778;2022-10-17T10:47:20;8.38;;;3.65;;
46447;SDS011;32145;50.390;30.778;2022-10-17T10:50:08;6.57;;;3.67;;
46447;SDS011;32145;50.390;30.778;2022-10-17T10:53:10;5.90;;;3.35;;
46447;SDS011;32145;50.390;30.778;2022-10-17T10:56:05;8.90;;;3.60;;
46447;SDS011;32145;50.390;30.778;2022-10-17T10:58:57;7.38;;;3.95;;
46447;SDS011;32145;50.390;30.778;2022-10-17T11:01:47;6.82;;;3.17;;
46447;SDS011;32145;50.390;30.778;2022-10-17T11:04:35;7.03;;;3.30;;
46447;SDS011;32145;50.390;30.778;2022-10-17T11:07:27;7.70;;;3.50;;
46447;SDS011;32145;50.390;30.778;2022-10-17T11:13:04;6.87;;;3.60;;
46447;SDS011;32145;50.390;30.778;2022-10-17T11:15:57;7.50;;;3.70;;
46447;SDS011;32145;50.390;30.778;2022-10-17T11:18:46;7.15;;;4.00;;
46447;SDS011;32145;50.390;30.778;2022-10-17T11:21:36;6.68;;;3.63;;
46447;SDS011;32145;50.390;30.778;2022-10-17T11:24:32;6.53;;;4.10;;
46447;SDS011;32145;50.390;30.778;2022-10-17T11:27:22;8.93;;;4.00;;
46447;SDS011;32145;50.390;30.778;2022-10-17T11:30:10;14.07;;;6.00;;
46447;SDS011;32145;50.390;30.778;2022-10-17T11:32:58;7.50;;;4.00;;
46447;SDS011;32145;50.390;30.778;2022-10-17T11:35:44;6.10;;;3.50;;
46447;SDS011;32145;50.390;30.778;2022-10-17T11:38:37;7.07;;;3.83;;
46447;SDS011;32145;50.390;30.778;2022-10-17T11:41:31;10.70;;;3.83;;
46447;SDS011;32145;50.390;30.778;2022-10-17T11:44:22;6.53;;;3.88;;
46447;SDS011;32145;50.390;30.778;2022-10-17T11:47:12;7.27;;;3.67;;
46447;SDS011;32145;50.390;30.778;2022-10-17T11:50:06;6.47;;;3.63;;
46447;SDS011;32145;50.390;30.778;2022-10-17T11:53:02;9.77;;;4.60;;
46447;SDS011;32145;50.390;30.778;2022-10-17T11:55:51;10.13;;;4.15;;
46447;SDS011;32145;50.390;30.778;2022-10-17T11:58:39;9.18;;;4.35;;
46447;SDS011;32145;50.390;30.778;2022-10-17T12:01:31;6.65;;;3.72;;
46447;SDS011;32145;50.390;30.778;2022-10-17T12:04:21;7.28;;;3.53;;
46447;SDS011;32145;50.390;30.778;2022-10-17T12:07:20;6.72;;;3.70;;
46447;SDS011;32145;50.390;30.778;2022-10-17T12:10:15;8.30;;;3.90;;
46447;SDS011;32145;50.390;30.778;2022-10-17T12:19:32;8.30;;;3.33;;
46447;SDS011;32145;50.390;30.778;2022-10-17T12:22:19;11.52;;;5.70;;
46447;SDS011;32145;50.390;30.778;2022-10-17T12:25:15;8.10;;;3.65;;
46447;SDS011;32145;50.390;30.778;2022-10-17T12:28:08;7.47;;;3.72;;
46447;SDS011;32145;50.390;30.778;2022-10-17T12:30:58;6.18;;;3.67;;
46447;SDS011;32145;50.390;30.778;2022-10-17T12:33:46;7.30;;;4.15;;
46447;SDS011;32145;50.390;30.778;2022-10-17T12:36:37;8.05;;;4.00;;
46447;SDS011;32145;50.390;30.778;2022-10-17T12:45:46;15.45;;;5.95;;
46447;SDS011;32145;50.390;30.778;2022-10-17T12:55:22;9.13;;;3.75;;
46447;SDS011;32145;50.390;30.778;2022-10-17T12:58:09;8.25;;;3.90;;
46447;SDS011;32145;50.390;30.778;2022-10-17T13:00:58;6.80;;;3.67;;
46447;SDS011;32145;50.390;30.778;2022-10-17T13:03:42;6.90;;;4.10;;
46447;SDS011;32145;50.390;30.778;2022-10-17T13:06:30;6.85;;;3.45;;
46447;SDS011;32145;50.390;30.778;2022-10-17T13:09:21;8.43;;;4.03;;
46447;SDS011;32145;50.390;30.778;2022-10-17T13:12:12;7.90;;;4.88;;
46447;SDS011;32145;50.390;30.778;2022-10-17T13:15:00;7.45;;;3.92;;
46447;SDS011;32145;50.390;30.778;2022-10-17T13:17:56;6.40;;;3.70;;
46447;SDS011;32145;50.390;30.778;2022-10-17T13:20:41;11.50;;;4.10;;
46447;SDS011;32145;50.390;30.778;2022-10-17T13:23:25;6.95;;;4.30;;
46447;SDS011;32145;50.390;30.778;2022-10-17T13:26:13;9.38;;;3.85;;
46447;SDS011;32145;50.390;30.778;2022-10-17T13:29:04;8.15;;;4.15;;
46447;SDS011;32145;50.390;30.778;2022-10-17T13:31:50;8.07;;;4.65;;
46447;SDS011;32145;50.390;30.778;2022-10-17T13:34:35;9.50;;;4.95;;
46447;SDS011;32145;50.390;30.778;2022-10-17T13:37:20;11.15;;;4.75;;
46447;SDS011;32145;50.390;30.778;2022-10-17T13:40:05;10.82;;;5.13;;
46447;SDS011;32145;50.390;30.778;2022-10-17T13:42:50;8.90;;;4.93;;
46447;SDS011;32145;50.390;30.778;2022-10-17T13:45:38;9.00;;;4.25;;
46447;SDS011;32145;50.390;30.778;2022-10-17T13:48:22;8.40;;;4.28;;
46447;SDS011;32145;50.390;30.778;2022-10-17T13:51:09;9.20;;;4.20;;
46447;SDS011;32145;50.390;30.778;2022-10-17T13:53:55;8.73;;;4.30;;
46447;SDS011;32145;50.390;30.778;2022-10-17T13:56:39;11.05;;;4.22;;
46447;SDS011;32145;50.390;30.778;2022-10-17T13:59:24;8.30;;;4.00;;
46447;SDS011;32145;50.390;30.778;2022-10-17T14:02:14;9.23;;;3.70;;
46447;SDS011;32145;50.390;30.778;2022-10-17T14:05:00;8.40;;;4.13;;
46447;SDS011;32145;50.390;30.778;2022-10-17T14:07:48;8.23;;;3.90;;
46447;SDS011;32145;50.390;30.778;2022-10-17T14:10:35;8.30;;;3.92;;
46447;SDS011;32145;50.390;30.778;2022-10-17T14:13:21;7.78;;;3.50;;
46447;SDS011;32145;50.390;30.778;2022-10-17T14:16:07;10.23;;;4.20;;
46447;SDS011;32145;50.390;30.778;2022-10-17T14:18:52;8.48;;;3.97;;
46447;SDS011;32145;50.390;30.778;2022-10-17T14:21:38;8.27;;;4.00;;
46447;SDS011;32145;50.390;30.778;2022-10-17T14:24:26;8.65;;;4.07;;
46447;SDS011;32145;50.390;30.778;2022-10-17T14:27:25;8.25;;;4.30;;
46447;SDS011;32145;50.390;30.778;2022-10-17T14:33:14;7.45;;;3.95;;
46447;SDS011;32145;50.390;30.778;2022-10-17T14:36:10;6.85;;;3.72;;
46447;SDS011;32145;50.390;30.778;2022-10-17T14:38:54;11.48;;;4.03;;
46447;SDS011;32145;50.390;30.778;2022-10-17T14:41:41;6.40;;;4.10;;
46447;SDS011;32145;50.390;30.778;2022-10-17T14:44:27;6.53;;;3.83;;
46447;SDS011;32145;50.390;30.778;2022-10-17T14:47:14;11.65;;;3.83;;
46447;SDS011;32145;50.390;30.778;2022-10-17T14:50:02;8.50;;;4.07;;
46447;SDS011;32145;50.390;30.778;2022-10-17T14:53:00;7.47;;;3.90;;
46447;SDS011;32145;50.390;30.778;2022-10-17T14:55:53;9.48;;;4.30;;
46447;SDS011;32145;50.390;30.778;2022-10-17T14:58:38;10.70;;;4.68;;
46447;SDS011;32145;50.390;30.778;2022-10-17T15:01:22;9.93;;;4.60;;
46447;SDS011;32145;50.390;30.778;2022-10-17T15:04:06;8.98;;;4.50;;
46447;SDS011;32145;50.390;30.778;2022-10-17T15:06:52;9.05;;;4.90;;
46447;SDS011;32145;50.390;30.778;2022-10-17T15:09:38;10.70;;;4.97;;
46447;SDS011;32145;50.390;30.778;2022-10-17T15:12:22;12.00;;;5.38;;
46447;SDS011;32145;50.390;30.778;2022-10-17T15:15:07;9.18;;;5.68;;
46447;SDS011;32145;50.390;30.778;2022-10-17T15:17:52;13.18;;;5.97;;
46447;SDS011;32145;50.390;30.778;2022-10-17T15:20:37;13.73;;;6.28;;
46447;SDS011;32145;50.390;30.778;2022-10-17T15:23:22;11.35;;;6.03;;
46447;SDS011;32145;50.390;30.778;2022-10-17T15:26:11;15.82;;;6.38;;
46447;SDS011;32145;50.390;30.778;2022-10-17T15:28:56;15.55;;;7.65;;
46447;SDS011;32145;50.390;30.778;2022-10-17T15:31:41;13.88;;;6.90;;
46447;SDS011;32145;50.390;30.778;2022-10-17T15:34:25;16.42;;;6.90;;
46447;SDS011;32145;50.390;30.778;2022-10-17T15:37:14;14.15;;;6.80;;
46447;SDS011;32145;50.390;30.778;2022-10-17T15:40:01;13.55;;;6.80;;
46447;SDS011;32145;50.390;30.778;2022-10-17T15:42:47;18.80;;;7.20;;
46447;SDS011;32145;50.390;30.778;2022-10-17T15:45:32;15.63;;;7.47;;
46447;SDS011;32145;50.390;30.778;2022-10-17T15:48:17;18.02;;;9.70;;
46447;SDS011;32145;50.390;30.778;2022-10-17T15:51:08;19.77;;;10.50;;
46447;SDS011;32145;50.390;30.778;2022-10-17T15:53:51;18.70;;;10.75;;
46447;SDS011;32145;50.390;30.778;2022-10-17T15:56:36;21.48;;;10.52;;
46447;SDS011;32145;50.390;30.778;2022-10-17T15:59:24;19.77;;;10.77;;
46447;SDS011;32145;50.390;30.778;2022-10-17T16:02:13;20.00;;;10.05;;
46447;SDS011;32145;50.390;30.778;2022-10-17T16:04:58;19.20;;;9.10;;
46447;SDS011;32145;50.390;30.778;2022-10-17T16:07:42;15.50;;;8.65;;
46447;SDS011;32145;50.390;30.778;2022-10-17T16:10:27;16.83;;;8.48;;
46447;SDS011;32145;50.390;30.778;2022-10-17T16:13:11;20.48;;;9.35;;
46447;SDS011;32145;50.390;30.778;2022-10-17T16:16:01;17.15;;;8.55;;
46447;SDS011;32145;50.390;30.778;2022-10-17T16:18:45;21.52;;;9.02;;
46447;SDS011;32145;50.390;30.778;2022-10-17T16:21:29;19.05;;;9.00;;
46447;SDS011;32145;50.390;30.778;2022-10-17T16:24:15;24.95;;;11.52;;
46447;SDS011;32145;50.390;30.778;2022-10-17T16:27:00;26.70;;;13.15;;
46447;SDS011;32145;50.390;30.778;2022-10-17T16:29:44;30.38;;;12.70;;
46447;SDS011;32145;50.390;30.778;2022-10-17T16:32:29;23.45;;;10.20;;
46447;SDS011;32145;50.390;30.778;2022-10-17T16:35:15;25.52;;;9.90;;
46447;SDS011;32145;50.390;30.778;2022-10-17T16:38:01;19.73;;;9.38;;
46447;SDS011;32145;50.390;30.778;2022-10-17T16:40:46;25.88;;;10.85;;
46447;SDS011;32145;50.390;30.778;2022-10-17T16:43:30;26.63;;;12.13;;